Aviation Digital Data Service (ADDS)

Output produced by METARs form (0320 UTC 04 July 2015)
found at http://www.aviationweather.gov/adds/metars/
 
METAR text: KCCU 040315Z AUTO 21006KT 10SM SCT050 BKN065 13/05 A3059 RMK AO2
Conditions at: KCCU (RED CLIFF PASS , CO, US) observed 0315 UTC 04 July 2015
Temperature: 13.0°C (55°F)
Dewpoint: 5.0°C (41°F) [RH = 58%]
Pressure (altimeter): 30.59 inches Hg (1036.0 mb)
Winds: from the SSW (210 degrees) at 7 MPH (6 knots; 3.1 m/s)
Visibility: 10 or more miles (16+ km)
Ceiling: 6500 feet AGL
Clouds: scattered clouds at 5000 feet AGL
broken clouds at 6500 feet AGL
Weather: automated observation with no human augmentation;
there may or may not be significant weather present at this time